createdAt,value
2022-08-06T00:01:25.301Z,2.97
2022-08-06T00:03:52.151Z,3.40
2022-08-06T00:06:18.837Z,3.10
2022-08-06T00:08:47.380Z,3.17
2022-08-06T00:11:14.014Z,2.93
2022-08-06T00:13:42.245Z,3.33
2022-08-06T00:16:31.533Z,3.30
2022-08-06T00:18:55.719Z,2.80
2022-08-06T00:21:41.121Z,3.93
2022-08-06T00:24:24.948Z,4.20
2022-08-06T00:27:05.828Z,4.23
2022-08-06T00:29:46.882Z,4.63
2022-08-06T00:32:14.022Z,5.23
2022-08-06T00:34:43.342Z,5.37
2022-08-06T00:37:18.902Z,4.90
2022-08-06T00:39:45.980Z,4.97
2022-08-06T00:42:13.268Z,4.63
2022-08-06T00:44:43.504Z,5.27
2022-08-06T00:47:41.362Z,5.50
2022-08-06T00:50:02.252Z,4.87
2022-08-06T00:52:29.206Z,4.87
2022-08-06T00:54:55.815Z,5.17
2022-08-06T00:57:26.716Z,4.97
2022-08-06T00:59:53.753Z,4.83
2022-08-06T01:02:20.423Z,4.73
2022-08-06T01:04:50.346Z,5.10
2022-08-06T01:07:17.467Z,4.57
2022-08-06T01:09:58.454Z,4.40
2022-08-06T01:12:32.351Z,4.53
2022-08-06T01:15:04.834Z,4.40
2022-08-06T01:17:31.645Z,4.27
2022-08-06T01:21:57.611Z,4.27
2022-08-06T01:22:48.376Z,4.23
2022-08-06T01:25:18.318Z,4.17
2022-08-06T01:27:44.882Z,4.50
2022-08-06T01:30:11.420Z,3.83
2022-08-06T01:32:37.936Z,4.03
2022-08-06T01:35:09.484Z,3.80
2022-08-06T01:37:43.165Z,4.27
2022-08-06T01:40:14.786Z,3.97
2022-08-06T01:42:41.441Z,3.97
2022-08-06T01:45:10.773Z,3.50
2022-08-06T01:47:54.317Z,3.77
2022-08-06T01:50:27.911Z,3.43
2022-08-06T01:52:59.337Z,3.50
2022-08-06T01:55:27.137Z,3.63
2022-08-06T01:58:26.841Z,3.70
2022-08-06T02:00:54.346Z,3.70
2022-08-06T02:03:24.673Z,3.77
2022-08-06T02:05:53.479Z,3.87
2022-08-06T02:08:36.969Z,4.03
2022-08-06T02:12:01.138Z,3.77
2022-08-06T02:13:55.563Z,4.00
2022-08-06T02:16:22.153Z,3.70
2022-08-06T02:18:53.905Z,4.00
2022-08-06T02:21:32.852Z,4.40
2022-08-06T02:23:59.896Z,4.33
2022-08-06T02:26:27.202Z,4.30
2022-08-06T02:29:01.095Z,4.40
2022-08-06T02:31:27.677Z,3.90
2022-08-06T02:34:03.508Z,4.37
2022-08-06T02:36:50.423Z,3.77
2022-08-06T02:39:17.869Z,3.50
2022-08-06T02:41:55.421Z,2.67
2022-08-06T02:44:22.620Z,2.60
2022-08-06T02:46:53.557Z,2.87
2022-08-06T02:49:25.697Z,2.90
2022-08-06T02:52:11.054Z,2.87
2022-08-06T02:54:46.678Z,2.90
2022-08-06T02:57:15.649Z,3.80
2022-08-06T02:59:43.063Z,3.40
2022-08-06T03:02:12.260Z,3.63
2022-08-06T03:04:41.714Z,3.77
2022-08-06T03:07:26.363Z,3.20
2022-08-06T03:09:53.619Z,3.43
2022-08-06T03:12:30.171Z,3.23
2022-08-06T03:15:07.017Z,4.07
2022-08-06T03:17:37.767Z,4.80
2022-08-06T03:20:04.453Z,3.77
2022-08-06T03:22:36.190Z,4.23
2022-08-06T03:25:11.312Z,4.43
2022-08-06T03:27:43.101Z,4.50
2022-08-06T03:30:10.551Z,4.33
2022-08-06T03:32:52.167Z,4.60
2022-08-06T03:35:51.136Z,4.57
2022-08-06T03:38:06.229Z,4.70
2022-08-06T03:40:33.043Z,5.00
2022-08-06T03:42:59.769Z,5.13
2022-08-06T03:45:45.234Z,5.07
2022-08-06T03:48:12.972Z,4.83
2022-08-06T03:50:39.673Z,4.67
2022-08-06T03:53:06.328Z,5.50
2022-08-06T03:55:37.135Z,5.63
2022-08-06T03:58:03.743Z,5.90
2022-08-06T04:00:30.290Z,5.80
2022-08-06T04:02:56.935Z,7.10
2022-08-06T04:05:23.582Z,7.70
2022-08-06T04:07:55.294Z,7.73
2022-08-06T04:10:33.663Z,7.70
2022-08-06T04:13:07.627Z,7.50
2022-08-06T04:15:48.152Z,8.17
2022-08-06T04:18:14.980Z,7.70
2022-08-06T04:20:43.844Z,7.60
2022-08-06T04:23:10.757Z,7.73
2022-08-06T04:25:37.507Z,7.57
2022-08-06T04:28:04.033Z,7.40
2022-08-06T04:30:30.618Z,7.87
2022-08-06T04:33:01.842Z,7.83
2022-08-06T04:36:06.605Z,7.63
2022-08-06T04:38:15.475Z,26.70
2022-08-06T04:40:52.798Z,16.23
2022-08-06T04:43:20.119Z,17.43
2022-08-06T04:46:18.068Z,12.23
2022-08-06T04:48:39.620Z,12.60
2022-08-06T04:51:06.962Z,9.77
2022-08-06T04:53:56.430Z,9.97
2022-08-06T04:56:24.154Z,7.73
2022-08-06T04:58:56.277Z,7.87
2022-08-06T05:01:27.384Z,8.10
2022-08-06T05:04:08.073Z,8.90
2022-08-06T05:06:39.737Z,8.00
2022-08-06T05:09:20.761Z,8.87
2022-08-06T05:11:57.698Z,4.00
2022-08-06T05:14:25.205Z,3.70
2022-08-06T05:16:53.704Z,2.17
2022-08-06T05:19:23.259Z,1.50
2022-08-06T05:22:05.778Z,1.63
2022-08-06T05:24:39.259Z,1.27
2022-08-06T05:27:18.102Z,1.17
2022-08-06T05:29:52.308Z,1.20
2022-08-06T05:32:24.799Z,1.20
2022-08-06T05:34:52.129Z,1.20
2022-08-06T05:37:23.647Z,1.30
2022-08-06T05:39:57.967Z,1.30
2022-08-06T05:42:26.648Z,1.27
2022-08-06T05:44:53.533Z,1.20
2022-08-06T05:47:20.414Z,1.30
2022-08-06T05:49:58.547Z,1.20
2022-08-06T05:52:27.951Z,1.07
2022-08-06T05:54:54.896Z,1.23
2022-08-06T05:57:40.496Z,1.50
2022-08-06T06:00:08.029Z,1.47
2022-08-06T06:02:35.140Z,1.33
2022-08-06T06:06:07.835Z,1.23
2022-08-06T06:08:09.532Z,1.33
2022-08-06T06:10:38.846Z,1.43
2022-08-06T06:13:25.539Z,1.67
2022-08-06T06:16:00.409Z,1.83
2022-08-06T06:18:33.984Z,1.60
2022-08-06T06:21:17.523Z,1.93
2022-08-06T06:23:46.143Z,1.80
2022-08-06T06:26:32.812Z,1.80
2022-08-06T06:28:59.465Z,2.00
2022-08-06T06:31:58.877Z,2.00
2022-08-06T06:34:14.439Z,2.17
2022-08-06T06:36:40.966Z,2.40
2022-08-06T06:39:13.325Z,2.33
2022-08-06T06:41:44.584Z,2.57
2022-08-06T06:44:17.809Z,3.20
2022-08-06T06:46:51.049Z,3.30
2022-08-06T06:49:58.952Z,4.03
2022-08-06T06:52:09.324Z,4.00
2022-08-06T06:54:38.113Z,4.73
2022-08-06T06:57:05.084Z,5.00
2022-08-06T07:00:00.778Z,3.77
2022-08-06T07:02:24.047Z,3.57
2022-08-06T07:04:54.517Z,2.37
2022-08-06T07:07:26.292Z,1.30
2022-08-06T07:09:53.455Z,1.20
2022-08-06T07:12:29.341Z,0.80
2022-08-06T07:15:01.281Z,0.50
2022-08-06T07:17:46.469Z,0.60
2022-08-06T07:20:17.495Z,0.80
2022-08-06T07:24:06.629Z,0.77
2022-08-06T07:25:30.763Z,0.80
2022-08-06T07:27:57.318Z,0.80
2022-08-06T07:30:26.544Z,1.00
2022-08-06T07:32:55.618Z,0.80
2022-08-06T07:35:22.201Z,0.73
2022-08-06T07:37:48.807Z,1.10
2022-08-06T07:40:15.708Z,1.20
2022-08-06T07:42:43.557Z,1.20
2022-08-06T07:45:11.170Z,0.80
2022-08-06T07:47:54.380Z,1.10
2022-08-06T07:50:23.977Z,1.17
2022-08-06T07:52:50.914Z,1.40
2022-08-06T07:55:17.418Z,2.00
2022-08-06T07:57:55.909Z,1.70
2022-08-06T08:00:27.369Z,1.87
2022-08-06T08:02:55.441Z,1.73
2022-08-06T08:05:26.239Z,2.03
2022-08-06T08:08:05.676Z,2.00
2022-08-06T08:10:36.057Z,2.60
2022-08-06T08:13:03.765Z,2.70
2022-08-06T08:15:30.518Z,2.87
2022-08-06T08:17:58.718Z,2.70
2022-08-06T08:20:25.463Z,2.87
2022-08-06T08:23:00.012Z,3.20
2022-08-06T08:25:43.135Z,3.37
2022-08-06T08:28:12.482Z,3.07
2022-08-06T08:30:41.647Z,3.60
2022-08-06T08:33:11.496Z,3.33
2022-08-06T08:35:49.928Z,3.13
2022-08-06T08:38:29.235Z,3.50
2022-08-06T08:40:56.335Z,3.90
2022-08-06T08:43:23.965Z,3.17
2022-08-06T08:46:10.476Z,3.77
2022-08-06T08:48:37.387Z,3.60
2022-08-06T08:51:03.966Z,4.07
2022-08-06T08:53:45.463Z,3.77
2022-08-06T08:57:08.115Z,4.50
2022-08-06T08:59:02.703Z,4.23
2022-08-06T09:01:52.623Z,4.43
2022-08-06T09:04:24.758Z,4.97
2022-08-06T09:06:54.945Z,5.07
2022-08-06T09:09:24.007Z,5.37
2022-08-06T09:12:05.589Z,5.57
2022-08-06T09:14:35.933Z,4.50
2022-08-06T09:17:02.476Z,5.70
2022-08-06T09:19:37.280Z,4.67
2022-08-06T09:22:04.826Z,4.57
2022-08-06T09:24:33.548Z,5.30
2022-08-06T09:27:03.144Z,4.67
2022-08-06T09:30:00.724Z,4.47
2022-08-06T09:32:33.578Z,4.03
2022-08-06T09:35:00.585Z,3.47
2022-08-06T09:37:54.548Z,3.70
2022-08-06T09:40:18.268Z,3.20
2022-08-06T09:42:45.169Z,2.63
2022-08-06T09:45:16.277Z,2.70
2022-08-06T09:47:43.961Z,2.80
2022-08-06T09:50:24.704Z,1.90
2022-08-06T09:52:54.005Z,2.17
2022-08-06T09:55:20.589Z,2.50
2022-08-06T09:57:48.946Z,2.50
2022-08-06T10:00:15.644Z,2.80
2022-08-06T10:02:42.228Z,2.70
2022-08-06T10:05:19.871Z,2.53
2022-08-06T10:07:46.947Z,3.00
2022-08-06T10:10:13.630Z,2.83
2022-08-06T10:12:55.332Z,2.87
2022-08-06T10:15:29.466Z,2.97
2022-08-06T10:18:16.145Z,2.90
2022-08-06T10:20:55.053Z,2.30
2022-08-06T10:23:22.442Z,2.40
2022-08-06T10:25:49.157Z,2.43
2022-08-06T10:28:15.995Z,2.50
2022-08-06T10:30:42.537Z,2.07
2022-08-06T10:33:18.343Z,1.90
2022-08-06T10:35:49.417Z,2.00
2022-08-06T10:38:15.994Z,2.10
2022-08-06T10:40:58.466Z,2.03
2022-08-06T10:43:25.559Z,2.00
2022-08-06T10:45:53.671Z,2.27
2022-08-06T10:48:58.774Z,2.13
2022-08-06T10:51:06.989Z,2.40
2022-08-06T10:54:01.919Z,2.17
2022-08-06T10:56:21.629Z,2.73
2022-08-06T10:58:52.314Z,2.70
2022-08-06T11:01:18.873Z,3.40
2022-08-06T11:03:45.605Z,3.00
2022-08-06T11:06:12.782Z,3.20
2022-08-06T11:08:49.329Z,2.90
2022-08-06T11:11:23.271Z,3.10
2022-08-06T11:13:52.366Z,3.33
2022-08-06T11:16:20.376Z,3.73
2022-08-06T11:18:54.531Z,2.57
2022-08-06T11:21:21.716Z,3.40
2022-08-06T11:23:58.462Z,3.40
2022-08-06T11:26:27.438Z,3.27
2022-08-06T11:28:54.738Z,3.33
2022-08-06T11:31:21.431Z,3.60
2022-08-06T11:33:48.220Z,3.47
2022-08-06T11:36:14.856Z,3.97
2022-08-06T11:38:48.699Z,3.10
2022-08-06T11:41:54.204Z,3.50
2022-08-06T11:44:04.949Z,2.77
2022-08-06T11:46:36.659Z,2.80
2022-08-06T11:49:06.696Z,2.80
2022-08-06T11:51:34.210Z,2.50
2022-08-06T11:54:09.449Z,2.20
2022-08-06T11:56:36.057Z,2.10
2022-08-06T11:59:02.619Z,2.10
2022-08-06T12:01:34.806Z,1.93
2022-08-06T12:04:01.838Z,1.60
2022-08-06T12:06:29.278Z,1.80
2022-08-06T12:08:56.258Z,1.30
2022-08-06T12:11:23.856Z,1.70
2022-08-06T12:13:58.266Z,1.53
2022-08-06T12:16:37.985Z,1.60
2022-08-06T12:19:04.559Z,2.00
2022-08-06T12:21:37.170Z,1.80
2022-08-06T12:24:10.463Z,1.60
2022-08-06T12:26:38.894Z,1.70
2022-08-06T12:29:05.464Z,1.80
2022-08-06T12:31:36.588Z,1.80
2022-08-06T12:34:10.917Z,2.00
2022-08-06T12:36:37.513Z,2.00
2022-08-06T12:39:04.265Z,2.00
2022-08-06T12:41:46.685Z,1.90
2022-08-06T12:44:13.889Z,1.90
2022-08-06T12:46:41.553Z,1.93
2022-08-06T12:49:09.977Z,2.10
2022-08-06T12:51:36.955Z,1.70
2022-08-06T12:54:04.287Z,4.20
2022-08-06T12:56:33.198Z,4.27
2022-08-06T12:59:03.063Z,4.13
2022-08-06T13:02:08.353Z,2.90
2022-08-06T13:04:17.389Z,2.53
2022-08-06T13:06:44.541Z,2.20
2022-08-06T13:09:15.204Z,2.00
2022-08-06T13:11:42.469Z,2.00
2022-08-06T13:14:17.090Z,2.50
2022-08-06T13:16:54.007Z,2.00
2022-08-06T13:19:20.935Z,2.10
2022-08-06T13:21:58.111Z,1.90
2022-08-06T13:24:24.902Z,1.80
2022-08-06T13:26:57.789Z,2.03
2022-08-06T13:30:29.158Z,2.23
2022-08-06T13:32:28.131Z,2.27
2022-08-06T13:34:59.972Z,5.80
2022-08-06T13:37:38.301Z,4.50
2022-08-06T13:40:11.874Z,3.73
2022-08-06T13:42:38.437Z,4.77
2022-08-06T13:45:55.458Z,3.10
2022-08-06T13:47:57.267Z,3.53
2022-08-06T13:50:25.193Z,3.20
2022-08-06T13:53:00.762Z,3.50
2022-08-06T13:56:01.920Z,3.77
2022-08-06T13:58:15.188Z,3.00
2022-08-06T14:00:41.761Z,3.50
2022-08-06T14:03:13.978Z,3.13
2022-08-06T14:05:40.830Z,3.20
2022-08-06T14:08:26.615Z,3.27
2022-08-06T14:10:53.583Z,3.03
2022-08-06T14:13:20.836Z,2.70
2022-08-06T14:15:47.488Z,3.20
2022-08-06T14:18:14.370Z,3.53
2022-08-06T14:20:42.170Z,2.80
2022-08-06T14:23:08.835Z,2.93
2022-08-06T14:26:00.025Z,3.23
2022-08-06T14:28:22.394Z,2.80
2022-08-06T14:30:51.502Z,3.27
2022-08-06T14:33:26.789Z,2.90
2022-08-06T14:36:03.553Z,2.73
2022-08-06T14:38:32.607Z,2.70
2022-08-06T14:41:03.101Z,2.63
2022-08-06T14:43:31.796Z,2.97
2022-08-06T14:46:00.337Z,2.40
2022-08-06T14:48:31.235Z,2.50
2022-08-06T14:50:58.131Z,2.60
2022-08-06T14:53:24.826Z,2.20
2022-08-06T14:56:07.076Z,2.43
2022-08-06T14:58:34.450Z,2.73
2022-08-06T15:01:01.027Z,2.50
2022-08-06T15:03:32.917Z,2.80
2022-08-06T15:06:06.028Z,2.30
2022-08-06T15:08:35.046Z,2.50
2022-08-06T15:11:06.216Z,2.03
2022-08-06T15:13:40.892Z,1.97
2022-08-06T15:16:11.120Z,2.23
2022-08-06T15:19:15.523Z,2.40
2022-08-06T15:21:50.876Z,2.60
2022-08-06T15:24:22.325Z,2.10
2022-08-06T15:26:52.280Z,2.37
2022-08-06T15:29:21.854Z,2.47
2022-08-06T15:31:48.722Z,2.80
2022-08-06T15:34:20.093Z,2.53
2022-08-06T15:37:01.420Z,2.53
2022-08-06T15:39:53.381Z,2.60
2022-08-06T15:42:17.578Z,2.53
2022-08-06T15:44:44.440Z,2.60
2022-08-06T15:47:10.977Z,2.60
2022-08-06T15:50:01.057Z,2.23
2022-08-06T15:52:28.347Z,2.07
2022-08-06T15:54:58.215Z,1.97
2022-08-06T15:58:04.578Z,1.97
2022-08-06T16:00:17.877Z,1.60
2022-08-06T16:02:50.605Z,1.87
2022-08-06T16:05:32.005Z,1.90
2022-08-06T16:08:04.294Z,1.80
2022-08-06T16:10:32.917Z,1.80
2022-08-06T16:12:59.879Z,1.80
2022-08-06T16:15:26.604Z,1.63
2022-08-06T16:18:09.476Z,2.13
2022-08-06T16:20:39.937Z,1.80
2022-08-06T16:23:24.685Z,1.57
2022-08-06T16:26:09.598Z,1.80
2022-08-06T16:28:40.329Z,1.50
2022-08-06T16:31:16.040Z,1.97
2022-08-06T16:33:54.095Z,1.70
2022-08-06T16:36:32.415Z,1.43
2022-08-06T16:38:59.879Z,1.43
2022-08-06T16:41:26.526Z,1.70
2022-08-06T16:44:13.094Z,1.90
2022-08-06T16:46:40.591Z,1.60
2022-08-06T16:49:10.284Z,1.70
2022-08-06T16:52:43.960Z,1.43
2022-08-06T16:54:33.877Z,1.67
2022-08-06T16:57:00.456Z,1.80
2022-08-06T16:59:42.530Z,2.10
2022-08-06T17:02:20.955Z,1.60
2022-08-06T17:04:48.378Z,1.50
2022-08-06T17:07:15.571Z,1.60
2022-08-06T17:09:48.960Z,1.87
2022-08-06T17:12:15.702Z,1.73
2022-08-06T17:17:37.397Z,1.77
2022-08-06T17:20:04.721Z,1.67
2022-08-06T17:22:34.518Z,1.90
2022-08-06T17:25:01.090Z,1.80
2022-08-06T17:27:43.183Z,2.13
2022-08-06T17:30:14.732Z,2.10
2022-08-06T17:32:46.465Z,1.90
2022-08-06T17:35:14.024Z,1.80
2022-08-06T17:37:44.318Z,1.90
2022-08-06T17:40:18.616Z,1.80
2022-08-06T17:42:47.134Z,1.83
2022-08-06T17:45:15.297Z,2.40
2022-08-06T17:47:51.832Z,1.73
2022-08-06T17:50:20.326Z,1.80
2022-08-06T17:52:47.609Z,1.93
2022-08-06T17:55:14.535Z,2.10
2022-08-06T17:58:07.270Z,1.90
2022-08-06T18:00:32.875Z,1.80
2022-08-06T18:03:01.410Z,1.70
2022-08-06T18:05:36.585Z,2.67
2022-08-06T18:08:15.098Z,2.77
2022-08-06T18:10:48.545Z,1.90
2022-08-06T18:13:17.968Z,1.80
2022-08-06T18:15:47.452Z,5.30
2022-08-06T18:18:19.600Z,6.73
2022-08-06T18:20:46.624Z,4.40
2022-08-06T18:23:21.368Z,3.37
2022-08-06T18:25:56.571Z,1.83
2022-08-06T18:28:31.714Z,2.00
2022-08-06T18:31:04.747Z,2.00
2022-08-06T18:33:31.648Z,1.70
2022-08-06T18:35:58.841Z,2.10
2022-08-06T18:38:31.817Z,1.70
2022-08-06T18:41:01.162Z,1.90
2022-08-06T18:43:55.478Z,1.60
2022-08-06T18:46:56.910Z,1.40
2022-08-06T18:49:15.914Z,1.83
2022-08-06T18:51:42.724Z,1.70
2022-08-06T18:54:14.343Z,2.10
2022-08-06T18:56:49.689Z,1.90
2022-08-06T18:59:23.127Z,2.00
2022-08-06T19:01:55.394Z,1.90
2022-08-06T19:04:27.182Z,2.03
2022-08-06T19:06:56.004Z,1.77
2022-08-06T19:09:22.585Z,2.07
2022-08-06T19:11:51.660Z,2.20
2022-08-06T19:14:19.988Z,2.27
2022-08-06T19:16:48.564Z,1.90
2022-08-06T19:19:17.340Z,2.20
2022-08-06T19:21:51.598Z,2.00
2022-08-06T19:24:36.142Z,2.00
2022-08-06T19:27:03.117Z,2.00
2022-08-06T19:29:58.481Z,2.13
2022-08-06T19:32:28.345Z,2.43
2022-08-06T19:34:55.717Z,3.17
2022-08-06T19:37:59.384Z,2.90
2022-08-06T19:40:08.918Z,2.70
2022-08-06T19:42:36.262Z,2.77
2022-08-06T19:45:16.138Z,2.67
2022-08-06T19:47:47.812Z,3.10
2022-08-06T19:50:15.774Z,2.53
2022-08-06T19:52:46.957Z,2.50
2022-08-06T19:56:06.477Z,2.13
2022-08-06T19:58:01.989Z,2.23
2022-08-06T20:01:05.055Z,2.30
2022-08-06T20:03:35.186Z,2.20
2022-08-06T20:06:20.685Z,2.20
2022-08-06T20:08:48.492Z,2.10
2022-08-06T20:11:45.963Z,2.30
2022-08-06T20:14:02.581Z,2.27
2022-08-06T20:16:29.850Z,2.57
2022-08-06T20:18:56.416Z,2.40
2022-08-06T20:21:42.357Z,2.47
2022-08-06T20:24:09.551Z,2.90
2022-08-06T20:26:36.563Z,2.20
2022-08-06T20:29:10.181Z,2.63
2022-08-06T20:31:54.863Z,2.50
2022-08-06T20:34:27.321Z,2.47
2022-08-06T20:36:55.723Z,2.60
2022-08-06T20:39:25.665Z,2.50
2022-08-06T20:42:02.908Z,2.50
2022-08-06T20:44:31.483Z,2.70
2022-08-06T20:47:44.361Z,2.47
2022-08-06T20:50:02.653Z,2.33
2022-08-06T20:52:31.545Z,2.53
2022-08-06T20:55:00.309Z,2.50
2022-08-06T20:57:28.813Z,2.67
2022-08-06T20:59:55.668Z,2.50
2022-08-06T21:02:25.744Z,2.30
2022-08-06T21:05:16.282Z,2.40
2022-08-06T21:07:45.519Z,2.53
2022-08-06T21:10:12.189Z,2.70
2022-08-06T21:12:58.836Z,2.50
2022-08-06T21:15:53.948Z,2.37
2022-08-06T21:18:14.567Z,2.60
2022-08-06T21:20:47.694Z,2.53
2022-08-06T21:23:17.682Z,2.63
2022-08-06T21:25:47.589Z,2.90
2022-08-06T21:28:15.329Z,2.70
2022-08-06T21:30:42.188Z,2.37
2022-08-06T21:33:10.120Z,2.60
2022-08-06T21:35:37.111Z,2.90
2022-08-06T21:38:07.050Z,2.97
2022-08-06T21:40:34.123Z,2.83
2022-08-06T21:43:00.766Z,3.40
2022-08-06T21:45:29.452Z,2.77
2022-08-06T21:48:16.093Z,2.93
2022-08-06T21:50:56.686Z,2.67
2022-08-06T21:53:49.350Z,2.70
2022-08-06T21:56:36.817Z,2.63
2022-08-06T21:58:59.507Z,2.80
2022-08-06T22:02:10.739Z,2.80
2022-08-06T22:04:48.341Z,2.80
2022-08-06T22:06:59.212Z,3.20
2022-08-06T22:09:38.180Z,2.87
2022-08-06T22:12:38.007Z,2.77
2022-08-06T22:14:52.233Z,3.07
2022-08-06T22:17:59.611Z,2.80
2022-08-06T22:20:11.585Z,2.90
2022-08-06T22:22:52.617Z,2.77
2022-08-06T22:25:19.770Z,2.33
2022-08-06T22:27:51.457Z,2.80
2022-08-06T22:30:22.195Z,2.53
2022-08-06T22:32:48.851Z,2.50
2022-08-06T22:35:15.409Z,2.60
2022-08-06T22:38:17.025Z,3.10
2022-08-06T22:40:31.652Z,3.00
2022-08-06T22:43:01.453Z,2.80
2022-08-06T22:46:00.022Z,2.67
2022-08-06T22:48:35.387Z,2.20
2022-08-06T22:51:02.992Z,2.40
2022-08-06T22:54:26.430Z,1.83
2022-08-06T22:56:16.078Z,1.70
2022-08-06T22:59:05.565Z,2.07
2022-08-06T23:02:06.202Z,1.90
2022-08-06T23:04:16.568Z,2.20
2022-08-06T23:06:43.414Z,1.90
2022-08-06T23:09:13.086Z,1.90
2022-08-06T23:11:51.466Z,2.10
2022-08-06T23:14:31.775Z,2.07
2022-08-06T23:17:00.064Z,1.80
2022-08-06T23:19:30.005Z,2.00
2022-08-06T23:22:02.276Z,2.13
2022-08-06T23:24:35.376Z,1.53
2022-08-06T23:27:03.206Z,1.80
2022-08-06T23:29:29.794Z,1.70
2022-08-06T23:32:01.844Z,1.80
2022-08-06T23:34:35.719Z,1.80
2022-08-06T23:37:10.635Z,1.73
2022-08-06T23:39:38.284Z,1.40
2022-08-06T23:42:05.568Z,1.70
2022-08-06T23:44:42.620Z,1.70
2022-08-06T23:47:54.248Z,1.80
2022-08-06T23:50:01.303Z,1.70
2022-08-06T23:52:27.881Z,1.60
2022-08-06T23:54:57.177Z,1.50
2022-08-06T23:57:32.942Z,1.30
